sensor_id;sensor_type;location;lat;lon;timestamp;pressure;altitude;pressure_sealevel;temperature;humidity
11343;BME280;5726;42.160;24.746;2023-01-19T00:00:24;98669.03;;;14.13;100.00
11343;BME280;5726;42.160;24.746;2023-01-19T00:02:49;98661.19;;;14.20;100.00
11343;BME280;5726;42.160;24.746;2023-01-19T00:05:15;98669.84;;;14.26;100.00
11343;BME280;5726;42.160;24.746;2023-01-19T00:07:41;98676.53;;;14.40;100.00
11343;BME280;5726;42.160;24.746;2023-01-19T00:10:08;98672.94;;;14.36;100.00
11343;BME280;5726;42.160;24.746;2023-01-19T00:12:33;98685.06;;;14.42;100.00
11343;BME280;5726;42.160;24.746;2023-01-19T00:14:59;98694.53;;;14.48;100.00
11343;BME280;5726;42.160;24.746;2023-01-19T00:17:24;98684.47;;;14.69;100.00
11343;BME280;5726;42.160;24.746;2023-01-19T00:19:49;98688.41;;;14.59;100.00
11343;BME280;5726;42.160;24.746;2023-01-19T00:22:15;98689.78;;;14.77;100.00
11343;BME280;5726;42.160;24.746;2023-01-19T00:24:40;98692.91;;;14.67;100.00
11343;BME280;5726;42.160;24.746;2023-01-19T00:27:06;98688.09;;;14.84;100.00
11343;BME280;5726;42.160;24.746;2023-01-19T00:29:31;98688.88;;;14.41;100.00
11343;BME280;5726;42.160;24.746;2023-01-19T00:32:01;98676.91;;;14.50;100.00
11343;BME280;5726;42.160;24.746;2023-01-19T00:34:27;98708.75;;;14.69;100.00
11343;BME280;5726;42.160;24.746;2023-01-19T00:37:10;98704.91;;;14.58;100.00
11343;BME280;5726;42.160;24.746;2023-01-19T00:39:36;98703.31;;;14.57;100.00
11343;BME280;5726;42.160;24.746;2023-01-19T00:42:01;98699.75;;;14.65;99.86
11343;BME280;5726;42.160;24.746;2023-01-19T00:44:45;98700.66;;;14.69;98.55
11343;BME280;5726;42.160;24.746;2023-01-19T00:47:11;98710.34;;;14.70;97.27
11343;BME280;5726;42.160;24.746;2023-01-19T00:49:37;98724.75;;;14.85;95.28
11343;BME280;5726;42.160;24.746;2023-01-19T00:52:02;98705.88;;;14.97;92.46
11343;BME280;5726;42.160;24.746;2023-01-19T00:54:28;98716.47;;;15.02;92.10
11343;BME280;5726;42.160;24.746;2023-01-19T00:56:53;98706.59;;;15.30;85.80
11343;BME280;5726;42.160;24.746;2023-01-19T00:59:18;98710.19;;;15.46;82.84
11343;BME280;5726;42.160;24.746;2023-01-19T01:01:44;98707.47;;;15.70;82.13
11343;BME280;5726;42.160;24.746;2023-01-19T01:04:09;98723.91;;;15.53;79.80
11343;BME280;5726;42.160;24.746;2023-01-19T01:06:37;98723.69;;;15.58;79.42
11343;BME280;5726;42.160;24.746;2023-01-19T01:09:03;98711.03;;;15.85;78.32
11343;BME280;5726;42.160;24.746;2023-01-19T01:11:37;98703.13;;;15.92;77.57
11343;BME280;5726;42.160;24.746;2023-01-19T01:14:02;98696.34;;;15.98;77.72
11343;BME280;5726;42.160;24.746;2023-01-19T01:16:28;98688.41;;;16.17;76.29
11343;BME280;5726;42.160;24.746;2023-01-19T01:18:53;98692.91;;;16.25;74.88
11343;BME280;5726;42.160;24.746;2023-01-19T01:21:19;98699.56;;;16.27;74.74
11343;BME280;5726;42.160;24.746;2023-01-19T01:23:44;98698.25;;;16.37;76.55
11343;BME280;5726;42.160;24.746;2023-01-19T01:26:10;98699.31;;;16.21;82.33
11343;BME280;5726;42.160;24.746;2023-01-19T01:28:35;98697.09;;;15.72;85.30
11343;BME280;5726;42.160;24.746;2023-01-19T01:31:01;98696.69;;;15.34;88.93
11343;BME280;5726;42.160;24.746;2023-01-19T01:33:26;98693.72;;;14.91;95.72
11343;BME280;5726;42.160;24.746;2023-01-19T01:35:51;98711.03;;;14.79;97.42
11343;BME280;5726;42.160;24.746;2023-01-19T01:38:17;98710.41;;;14.61;99.19
11343;BME280;5726;42.160;24.746;2023-01-19T01:40:43;98698.63;;;14.66;99.58
11343;BME280;5726;42.160;24.746;2023-01-19T01:43:13;98701.00;;;14.67;100.00
11343;BME280;5726;42.160;24.746;2023-01-19T01:45:40;98712.09;;;14.54;100.00
11343;BME280;5726;42.160;24.746;2023-01-19T01:50:53;98718.56;;;14.41;100.00
11343;BME280;5726;42.160;24.746;2023-01-19T01:53:42;98729.69;;;13.99;100.00
11343;BME280;5726;42.160;24.746;2023-01-19T01:56:14;98730.28;;;14.04;100.00
11343;BME280;5726;42.160;24.746;2023-01-19T01:58:42;98734.81;;;13.72;100.00
11343;BME280;5726;42.160;24.746;2023-01-19T02:01:07;98735.28;;;13.94;100.00
11343;BME280;5726;42.160;24.746;2023-01-19T02:03:52;98715.56;;;14.02;100.00
11343;BME280;5726;42.160;24.746;2023-01-19T02:06:18;98714.94;;;13.96;100.00
11343;BME280;5726;42.160;24.746;2023-01-19T02:08:54;98711.00;;;14.34;100.00
11343;BME280;5726;42.160;24.746;2023-01-19T02:11:41;98720.16;;;14.01;100.00
11343;BME280;5726;42.160;24.746;2023-01-19T02:14:25;98709.78;;;13.91;100.00
11343;BME280;5726;42.160;24.746;2023-01-19T02:16:51;98718.41;;;14.05;100.00
11343;BME280;5726;42.160;24.746;2023-01-19T02:19:21;98719.91;;;14.15;100.00
11343;BME280;5726;42.160;24.746;2023-01-19T02:22:03;98723.63;;;13.82;100.00
11343;BME280;5726;42.160;24.746;2023-01-19T02:24:32;98715.75;;;13.77;100.00
11343;BME280;5726;42.160;24.746;2023-01-19T02:26:58;98717.72;;;13.88;100.00
11343;BME280;5726;42.160;24.746;2023-01-19T02:29:25;98710.56;;;14.33;98.76
11343;BME280;5726;42.160;24.746;2023-01-19T02:31:51;98708.66;;;14.33;97.12
11343;BME280;5726;42.160;24.746;2023-01-19T02:34:18;98723.13;;;14.29;98.94
11343;BME280;5726;42.160;24.746;2023-01-19T02:37:13;98714.59;;;14.27;99.57
11343;BME280;5726;42.160;24.746;2023-01-19T02:39:41;98712.06;;;14.01;100.00
11343;BME280;5726;42.160;24.746;2023-01-19T02:42:16;98712.16;;;14.13;99.96
11343;BME280;5726;42.160;24.746;2023-01-19T02:44:46;98710.63;;;14.24;99.51
11343;BME280;5726;42.160;24.746;2023-01-19T02:47:12;98701.16;;;14.18;99.84
11343;BME280;5726;42.160;24.746;2023-01-19T02:49:38;98705.25;;;13.84;100.00
11343;BME280;5726;42.160;24.746;2023-01-19T02:52:03;98720.72;;;13.66;100.00
11343;BME280;5726;42.160;24.746;2023-01-19T03:10:48;98743.88;;;13.87;100.00
11343;BME280;5726;42.160;24.746;2023-01-19T03:13:28;98731.13;;;13.96;100.00
11343;BME280;5726;42.160;24.746;2023-01-19T03:19:10;98734.56;;;13.85;100.00
11343;BME280;5726;42.160;24.746;2023-01-19T03:21:38;98737.44;;;14.00;100.00
11343;BME280;5726;42.160;24.746;2023-01-19T03:24:09;98735.13;;;13.90;100.00
11343;BME280;5726;42.160;24.746;2023-01-19T03:26:44;98751.56;;;13.97;100.00
11343;BME280;5726;42.160;24.746;2023-01-19T03:29:12;98748.19;;;13.80;100.00
11343;BME280;5726;42.160;24.746;2023-01-19T03:31:39;98741.88;;;13.56;100.00
11343;BME280;5726;42.160;24.746;2023-01-19T03:34:09;98749.31;;;13.30;100.00
11343;BME280;5726;42.160;24.746;2023-01-19T03:36:48;98744.56;;;13.27;100.00
11343;BME280;5726;42.160;24.746;2023-01-19T03:39:20;98757.53;;;13.25;100.00
11343;BME280;5726;42.160;24.746;2023-01-19T03:41:47;98744.91;;;13.46;100.00
11343;BME280;5726;42.160;24.746;2023-01-19T03:44:15;98735.50;;;13.32;100.00
11343;BME280;5726;42.160;24.746;2023-01-19T03:46:41;98750.19;;;13.42;100.00
11343;BME280;5726;42.160;24.746;2023-01-19T03:49:08;98751.91;;;13.47;100.00
11343;BME280;5726;42.160;24.746;2023-01-19T03:51:37;98739.72;;;13.70;99.73
11343;BME280;5726;42.160;24.746;2023-01-19T03:54:08;98721.13;;;13.77;98.45
11343;BME280;5726;42.160;24.746;2023-01-19T03:56:34;98737.88;;;14.02;95.62
11343;BME280;5726;42.160;24.746;2023-01-19T03:58:59;98757.13;;;13.72;98.48
11343;BME280;5726;42.160;24.746;2023-01-19T04:01:25;98743.25;;;13.62;99.63
11343;BME280;5726;42.160;24.746;2023-01-19T04:03:51;98741.22;;;13.59;100.00
11343;BME280;5726;42.160;24.746;2023-01-19T04:06:18;98758.81;;;13.85;97.91
11343;BME280;5726;42.160;24.746;2023-01-19T04:08:44;98762.13;;;13.62;99.92
11343;BME280;5726;42.160;24.746;2023-01-19T04:11:11;98765.34;;;13.55;100.00
11343;BME280;5726;42.160;24.746;2023-01-19T04:13:37;98759.22;;;13.67;98.91
11343;BME280;5726;42.160;24.746;2023-01-19T04:16:03;98761.41;;;13.93;97.34
11343;BME280;5726;42.160;24.746;2023-01-19T04:18:30;98765.19;;;13.81;97.85
11343;BME280;5726;42.160;24.746;2023-01-19T04:21:00;98754.31;;;13.40;100.00
11343;BME280;5726;42.160;24.746;2023-01-19T04:23:27;98758.78;;;13.36;100.00
11343;BME280;5726;42.160;24.746;2023-01-19T04:26:00;98760.59;;;13.15;100.00
11343;BME280;5726;42.160;24.746;2023-01-19T04:28:26;98760.72;;;13.27;100.00
11343;BME280;5726;42.160;24.746;2023-01-19T04:30:51;98764.91;;;13.08;100.00
11343;BME280;5726;42.160;24.746;2023-01-19T04:33:18;98759.22;;;13.09;100.00
11343;BME280;5726;42.160;24.746;2023-01-19T04:35:44;98757.53;;;13.25;100.00
11343;BME280;5726;42.160;24.746;2023-01-19T04:38:09;98773.09;;;13.57;99.07
11343;BME280;5726;42.160;24.746;2023-01-19T04:40:35;98781.50;;;13.55;100.00
11343;BME280;5726;42.160;24.746;2023-01-19T04:43:00;98777.44;;;13.41;100.00
11343;BME280;5726;42.160;24.746;2023-01-19T04:45:25;98761.25;;;13.49;100.00
11343;BME280;5726;42.160;24.746;2023-01-19T04:47:51;98764.75;;;13.70;98.73
11343;BME280;5726;42.160;24.746;2023-01-19T04:50:16;98756.94;;;13.57;98.64
11343;BME280;5726;42.160;24.746;2023-01-19T04:52:42;98755.78;;;13.58;98.16
11343;BME280;5726;42.160;24.746;2023-01-19T04:55:07;98760.16;;;13.71;97.19
11343;BME280;5726;42.160;24.746;2023-01-19T04:57:33;98762.84;;;13.71;97.32
11343;BME280;5726;42.160;24.746;2023-01-19T04:59:59;98776.06;;;13.84;96.14
11343;BME280;5726;42.160;24.746;2023-01-19T05:02:25;98765.56;;;13.42;99.20
11343;BME280;5726;42.160;24.746;2023-01-19T05:04:51;98780.50;;;13.60;98.55
11343;BME280;5726;42.160;24.746;2023-01-19T05:07:16;98764.81;;;13.33;99.73
11343;BME280;5726;42.160;24.746;2023-01-19T05:09:42;98750.16;;;13.51;98.80
11343;BME280;5726;42.160;24.746;2023-01-19T05:12:07;98767.19;;;13.63;97.57
11343;BME280;5726;42.160;24.746;2023-01-19T05:14:33;98773.13;;;13.48;99.21
11343;BME280;5726;42.160;24.746;2023-01-19T05:16:58;98772.59;;;13.18;100.00
11343;BME280;5726;42.160;24.746;2023-01-19T05:19:24;98757.81;;;13.40;95.99
11343;BME280;5726;42.160;24.746;2023-01-19T05:21:50;98769.16;;;13.46;96.23
11343;BME280;5726;42.160;24.746;2023-01-19T05:24:16;98777.94;;;13.63;92.92
11343;BME280;5726;42.160;24.746;2023-01-19T05:26:42;98781.06;;;13.45;97.04
11343;BME280;5726;42.160;24.746;2023-01-19T05:29:07;98780.16;;;13.33;97.99
11343;BME280;5726;42.160;24.746;2023-01-19T05:31:34;98785.06;;;13.39;97.80
11343;BME280;5726;42.160;24.746;2023-01-19T05:34:00;98782.59;;;13.54;95.59
11343;BME280;5726;42.160;24.746;2023-01-19T05:36:25;98788.94;;;13.79;93.08
11343;BME280;5726;42.160;24.746;2023-01-19T05:38:51;98785.09;;;13.88;93.67
11343;BME280;5726;42.160;24.746;2023-01-19T05:41:17;98806.69;;;14.08;91.25
11343;BME280;5726;42.160;24.746;2023-01-19T05:43:42;98788.13;;;13.86;92.31
11343;BME280;5726;42.160;24.746;2023-01-19T05:46:07;98795.91;;;13.80;92.33
11343;BME280;5726;42.160;24.746;2023-01-19T05:48:33;98809.59;;;13.75;93.23
11343;BME280;5726;42.160;24.746;2023-01-19T05:50:59;98800.47;;;13.59;93.51
11343;BME280;5726;42.160;24.746;2023-01-19T05:53:27;98816.06;;;14.02;91.67
11343;BME280;5726;42.160;24.746;2023-01-19T05:55:57;98813.69;;;13.81;92.85
11343;BME280;5726;42.160;24.746;2023-01-19T05:58:23;98823.00;;;13.83;93.12
11343;BME280;5726;42.160;24.746;2023-01-19T06:00:49;98817.16;;;14.10;91.06
11343;BME280;5726;42.160;24.746;2023-01-19T06:03:14;98825.47;;;14.25;99.05
11343;BME280;5726;42.160;24.746;2023-01-19T06:05:40;98817.56;;;14.40;100.00
11343;BME280;5726;42.160;24.746;2023-01-19T06:08:05;98818.44;;;14.65;98.31
11343;BME280;5726;42.160;24.746;2023-01-19T06:10:30;98830.16;;;14.69;91.91
11343;BME280;5726;42.160;24.746;2023-01-19T06:12:56;98823.00;;;14.73;92.32
11343;BME280;5726;42.160;24.746;2023-01-19T06:15:21;98824.44;;;14.70;88.89
11343;BME280;5726;42.160;24.746;2023-01-19T06:17:47;98822.19;;;14.40;89.99
11343;BME280;5726;42.160;24.746;2023-01-19T06:20:12;98828.59;;;14.27;90.83
11343;BME280;5726;42.160;24.746;2023-01-19T06:22:40;98823.06;;;14.44;90.60
11343;BME280;5726;42.160;24.746;2023-01-19T06:25:06;98821.84;;;14.41;90.17
11343;BME280;5726;42.160;24.746;2023-01-19T06:27:31;98832.22;;;14.02;91.40
11343;BME280;5726;42.160;24.746;2023-01-19T06:29:57;98825.38;;;14.13;90.61
11343;BME280;5726;42.160;24.746;2023-01-19T06:32:22;98822.69;;;14.13;92.83
11343;BME280;5726;42.160;24.746;2023-01-19T06:34:48;98821.69;;;13.89;94.14
11343;BME280;5726;42.160;24.746;2023-01-19T06:37:13;98833.09;;;13.66;94.03
11343;BME280;5726;42.160;24.746;2023-01-19T06:39:41;98849.03;;;13.42;95.87
11343;BME280;5726;42.160;24.746;2023-01-19T06:42:07;98838.34;;;13.17;98.36
11343;BME280;5726;42.160;24.746;2023-01-19T06:44:33;98831.22;;;13.12;98.54
11343;BME280;5726;42.160;24.746;2023-01-19T06:46:58;98837.91;;;12.89;99.62
11343;BME280;5726;42.160;24.746;2023-01-19T06:49:24;98841.22;;;12.70;100.00
11343;BME280;5726;42.160;24.746;2023-01-19T06:51:49;98841.41;;;12.90;100.00
11343;BME280;5726;42.160;24.746;2023-01-19T06:54:15;98845.97;;;12.81;100.00
11343;BME280;5726;42.160;24.746;2023-01-19T06:56:40;98843.41;;;13.10;100.00
11343;BME280;5726;42.160;24.746;2023-01-19T06:59:06;98845.97;;;13.52;96.93
11343;BME280;5726;42.160;24.746;2023-01-19T07:01:32;98836.78;;;13.53;96.32
11343;BME280;5726;42.160;24.746;2023-01-19T07:03:58;98840.25;;;13.53;97.16
11343;BME280;5726;42.160;24.746;2023-01-19T07:06:23;98844.53;;;13.54;97.47
11343;BME280;5726;42.160;24.746;2023-01-19T07:08:48;98850.38;;;13.56;97.19
11343;BME280;5726;42.160;24.746;2023-01-19T07:11:14;98847.44;;;13.78;95.71
11343;BME280;5726;42.160;24.746;2023-01-19T07:13:40;98855.88;;;14.05;93.56
11343;BME280;5726;42.160;24.746;2023-01-19T07:16:10;98856.88;;;13.92;95.39
11343;BME280;5726;42.160;24.746;2023-01-19T07:18:42;98866.41;;;13.90;96.18
11343;BME280;5726;42.160;24.746;2023-01-19T07:21:07;98859.00;;;14.36;99.98
11343;BME280;5726;42.160;24.746;2023-01-19T07:23:33;98858.50;;;14.95;100.00
11343;BME280;5726;42.160;24.746;2023-01-19T07:25:59;98850.69;;;15.46;100.00
11343;BME280;5726;42.160;24.746;2023-01-19T07:28:29;98845.28;;;15.46;95.71
11343;BME280;5726;42.160;24.746;2023-01-19T07:30:55;98848.19;;;15.53;92.59
11343;BME280;5726;42.160;24.746;2023-01-19T07:33:21;98852.25;;;15.82;92.43
11343;BME280;5726;42.160;24.746;2023-01-19T07:35:48;98845.72;;;16.07;90.04
11343;BME280;5726;42.160;24.746;2023-01-19T07:38:16;98855.88;;;16.10;87.77
11343;BME280;5726;42.160;24.746;2023-01-19T07:40:42;98855.19;;;16.13;84.94
11343;BME280;5726;42.160;24.746;2023-01-19T07:43:08;98864.75;;;16.11;85.16
11343;BME280;5726;42.160;24.746;2023-01-19T07:45:34;98857.81;;;15.86;87.54
11343;BME280;5726;42.160;24.746;2023-01-19T07:48:00;98854.09;;;16.02;88.43
11343;BME280;5726;42.160;24.746;2023-01-19T07:50:25;98856.56;;;16.07;88.75
11343;BME280;5726;42.160;24.746;2023-01-19T07:52:53;98850.56;;;16.26;86.53
11343;BME280;5726;42.160;24.746;2023-01-19T07:55:19;98861.38;;;15.90;88.15
11343;BME280;5726;42.160;24.746;2023-01-19T07:57:49;98851.38;;;16.14;87.09
11343;BME280;5726;42.160;24.746;2023-01-19T08:00:16;98847.84;;;16.37;85.68
11343;BME280;5726;42.160;24.746;2023-01-19T08:02:44;98839.72;;;16.37;86.76
11343;BME280;5726;42.160;24.746;2023-01-19T08:05:10;98843.00;;;16.43;85.69
11343;BME280;5726;42.160;24.746;2023-01-19T08:07:35;98843.56;;;16.48;85.30
11343;BME280;5726;42.160;24.746;2023-01-19T08:10:01;98834.91;;;16.31;85.74
11343;BME280;5726;42.160;24.746;2023-01-19T08:12:26;98836.44;;;16.56;85.50
11343;BME280;5726;42.160;24.746;2023-01-19T08:14:51;98843.31;;;16.80;83.70
11343;BME280;5726;42.160;24.746;2023-01-19T08:17:17;98844.94;;;16.70;84.02
11343;BME280;5726;42.160;24.746;2023-01-19T08:19:43;98854.44;;;16.64;85.13
11343;BME280;5726;42.160;24.746;2023-01-19T08:22:09;98844.06;;;16.93;83.09
11343;BME280;5726;42.160;24.746;2023-01-19T08:24:34;98854.44;;;17.18;82.72
11343;BME280;5726;42.160;24.746;2023-01-19T08:27:01;98854.66;;;17.25;81.77
11343;BME280;5726;42.160;24.746;2023-01-19T08:29:27;98857.59;;;17.20;81.92
11343;BME280;5726;42.160;24.746;2023-01-19T08:31:55;98852.41;;;17.27;81.63
11343;BME280;5726;42.160;24.746;2023-01-19T08:34:22;98844.50;;;17.22;80.62
11343;BME280;5726;42.160;24.746;2023-01-19T08:36:48;98841.22;;;17.44;81.58
11343;BME280;5726;42.160;24.746;2023-01-19T08:39:13;98844.88;;;17.36;78.89
11343;BME280;5726;42.160;24.746;2023-01-19T08:41:39;98853.38;;;17.50;78.56
11343;BME280;5726;42.160;24.746;2023-01-19T08:44:04;98836.06;;;17.54;78.76
11343;BME280;5726;42.160;24.746;2023-01-19T08:46:30;98846.22;;;17.88;77.50
11343;BME280;5726;42.160;24.746;2023-01-19T08:48:55;98849.16;;;17.98;76.37
11343;BME280;5726;42.160;24.746;2023-01-19T08:51:21;98840.19;;;18.28;76.23
11343;BME280;5726;42.160;24.746;2023-01-19T08:53:47;98829.44;;;18.51;74.62
11343;BME280;5726;42.160;24.746;2023-01-19T08:56:12;98831.47;;;18.72;74.13
11343;BME280;5726;42.160;24.746;2023-01-19T08:58:43;98825.63;;;19.08;72.10
11343;BME280;5726;42.160;24.746;2023-01-19T09:01:09;98818.78;;;19.17;71.28
11343;BME280;5726;42.160;24.746;2023-01-19T09:03:36;98825.16;;;19.25;72.13
11343;BME280;5726;42.160;24.746;2023-01-19T09:06:04;98813.25;;;19.55;71.55
11343;BME280;5726;42.160;24.746;2023-01-19T09:08:29;98812.94;;;19.82;70.24
11343;BME280;5726;42.160;24.746;2023-01-19T09:10:55;98814.84;;;20.04;70.20
11343;BME280;5726;42.160;24.746;2023-01-19T09:13:20;98806.59;;;19.97;69.27
11343;BME280;5726;42.160;24.746;2023-01-19T09:15:46;98812.97;;;19.86;69.13
11343;BME280;5726;42.160;24.746;2023-01-19T09:18:14;98816.31;;;19.98;68.94
11343;BME280;5726;42.160;24.746;2023-01-19T09:20:41;98810.22;;;19.82;69.58
11343;BME280;5726;42.160;24.746;2023-01-19T09:23:08;98805.06;;;20.25;67.71
11343;BME280;5726;42.160;24.746;2023-01-19T09:25:36;98805.72;;;20.19;68.28
11343;BME280;5726;42.160;24.746;2023-01-19T09:28:03;98795.09;;;20.36;68.03
11343;BME280;5726;42.160;24.746;2023-01-19T09:30:28;98800.63;;;20.14;69.91
11343;BME280;5726;42.160;24.746;2023-01-19T09:32:53;98793.03;;;20.30;69.86
11343;BME280;5726;42.160;24.746;2023-01-19T09:35:19;98796.19;;;20.32;67.94
11343;BME280;5726;42.160;24.746;2023-01-19T09:37:46;98783.88;;;20.12;68.96
11343;BME280;5726;42.160;24.746;2023-01-19T09:40:12;98782.94;;;20.30;67.14
11343;BME280;5726;42.160;24.746;2023-01-19T09:42:43;98793.06;;;20.62;66.58
11343;BME280;5726;42.160;24.746;2023-01-19T09:45:34;98792.56;;;20.54;66.23
11343;BME280;5726;42.160;24.746;2023-01-19T09:48:04;98788.34;;;20.85;65.08
11343;BME280;5726;42.160;24.746;2023-01-19T09:50:37;98778.97;;;20.54;64.97
11343;BME280;5726;42.160;24.746;2023-01-19T09:53:19;98783.44;;;20.68;64.60
11343;BME280;5726;42.160;24.746;2023-01-19T09:55:49;98760.56;;;21.09;64.44
11343;BME280;5726;42.160;24.746;2023-01-19T09:58:16;98770.28;;;21.10;65.29
11343;BME280;5726;42.160;24.746;2023-01-19T10:00:48;98759.59;;;21.31;65.88
11343;BME280;5726;42.160;24.746;2023-01-19T10:03:16;98746.19;;;21.12;64.84
11343;BME280;5726;42.160;24.746;2023-01-19T10:05:57;98747.25;;;21.04;65.19
11343;BME280;5726;42.160;24.746;2023-01-19T10:11:29;98752.81;;;20.78;65.81
11343;BME280;5726;42.160;24.746;2023-01-19T10:13:58;98746.81;;;20.66;65.34
11343;BME280;5726;42.160;24.746;2023-01-19T10:16:44;98745.81;;;20.77;65.33
11343;BME280;5726;42.160;24.746;2023-01-19T10:19:32;98742.34;;;20.80;64.55
11343;BME280;5726;42.160;24.746;2023-01-19T10:22:13;98731.91;;;20.89;63.39
11343;BME280;5726;42.160;24.746;2023-01-19T10:24:42;98742.13;;;20.96;62.49
11343;BME280;5726;42.160;24.746;2023-01-19T10:27:16;98744.25;;;21.16;60.42
11343;BME280;5726;42.160;24.746;2023-01-19T10:29:43;98730.59;;;21.12;61.24
11343;BME280;5726;42.160;24.746;2023-01-19T10:32:20;98729.25;;;21.36;59.42
11343;BME280;5726;42.160;24.746;2023-01-19T10:34:48;98711.22;;;21.21;59.94
11343;BME280;5726;42.160;24.746;2023-01-19T10:39:51;98710.28;;;21.50;56.96
11343;BME280;5726;42.160;24.746;2023-01-19T10:42:17;98703.94;;;21.39;53.71
11343;BME280;5726;42.160;24.746;2023-01-19T10:44:44;98712.25;;;21.49;52.92
11343;BME280;5726;42.160;24.746;2023-01-19T10:47:18;98702.94;;;21.54;52.36
11343;BME280;5726;42.160;24.746;2023-01-19T10:49:44;98710.00;;;21.65;53.61
11343;BME280;5726;42.160;24.746;2023-01-19T10:52:34;98698.84;;;21.87;54.21
11343;BME280;5726;42.160;24.746;2023-01-19T10:55:02;98701.13;;;21.78;53.16
11343;BME280;5726;42.160;24.746;2023-01-19T10:57:34;98698.56;;;22.03;51.78
11343;BME280;5726;42.160;24.746;2023-01-19T11:00:04;98695.66;;;21.78;52.83
11343;BME280;5726;42.160;24.746;2023-01-19T11:02:31;98703.16;;;21.88;51.66
11343;BME280;5726;42.160;24.746;2023-01-19T11:05:20;98702.44;;;21.98;49.65
11343;BME280;5726;42.160;24.746;2023-01-19T11:07:46;98694.63;;;21.97;49.83
11343;BME280;5726;42.160;24.746;2023-01-19T11:12:41;98675.09;;;21.88;51.82
11343;BME280;5726;42.160;24.746;2023-01-19T11:15:19;98679.13;;;22.14;52.18
11343;BME280;5726;42.160;24.746;2023-01-19T11:17:46;98683.00;;;22.17;51.16
11343;BME280;5726;42.160;24.746;2023-01-19T11:20:24;98679.41;;;21.92;51.56
11343;BME280;5726;42.160;24.746;2023-01-19T11:25:39;98667.53;;;22.45;49.82
11343;BME280;5726;42.160;24.746;2023-01-19T11:28:05;98683.97;;;22.49;49.04
11343;BME280;5726;42.160;24.746;2023-01-19T11:30:30;98692.50;;;22.37;48.13
11343;BME280;5726;42.160;24.746;2023-01-19T11:32:56;98680.84;;;22.57;50.36
11343;BME280;5726;42.160;24.746;2023-01-19T11:38:24;98668.44;;;22.87;47.01
11343;BME280;5726;42.160;24.746;2023-01-19T11:40:56;98680.91;;;22.81;44.30
11343;BME280;5726;42.160;24.746;2023-01-19T11:43:27;98689.06;;;22.60;38.72
11343;BME280;5726;42.160;24.746;2023-01-19T11:45:53;98680.38;;;22.31;32.82
11343;BME280;5726;42.160;24.746;2023-01-19T11:48:36;98639.38;;;22.24;32.73
11343;BME280;5726;42.160;24.746;2023-01-19T11:51:04;98658.44;;;22.17;31.66
11343;BME280;5726;42.160;24.746;2023-01-19T11:53:34;98657.91;;;21.87;32.36
11343;BME280;5726;42.160;24.746;2023-01-19T11:56:12;98656.31;;;21.79;32.41
11343;BME280;5726;42.160;24.746;2023-01-19T11:58:40;98636.00;;;21.73;31.49
11343;BME280;5726;42.160;24.746;2023-01-19T12:01:24;98596.31;;;21.86;30.35
11343;BME280;5726;42.160;24.746;2023-01-19T12:03:57;98620.41;;;21.70;30.58
11343;BME280;5726;42.160;24.746;2023-01-19T12:06:29;98658.59;;;21.74;30.83
11343;BME280;5726;42.160;24.746;2023-01-19T12:09:28;98636.81;;;21.77;29.96
11343;BME280;5726;42.160;24.746;2023-01-19T12:12:03;98628.91;;;21.62;30.27
11343;BME280;5726;42.160;24.746;2023-01-19T12:14:45;98616.91;;;21.73;28.89
11343;BME280;5726;42.160;24.746;2023-01-19T12:17:23;98615.47;;;21.97;28.11
11343;BME280;5726;42.160;24.746;2023-01-19T12:19:55;98629.44;;;21.85;28.82
11343;BME280;5726;42.160;24.746;2023-01-19T12:22:25;98634.53;;;21.93;28.57
11343;BME280;5726;42.160;24.746;2023-01-19T12:25:20;98644.66;;;21.89;29.11
11343;BME280;5726;42.160;24.746;2023-01-19T12:27:48;98647.34;;;21.82;29.45
11343;BME280;5726;42.160;24.746;2023-01-19T12:30:24;98635.34;;;22.01;29.17
11343;BME280;5726;42.160;24.746;2023-01-19T12:32:51;98634.53;;;21.93;29.06
11343;BME280;5726;42.160;24.746;2023-01-19T12:38:31;98635.38;;;22.11;28.62
11343;BME280;5726;42.160;24.746;2023-01-19T12:41:29;98628.38;;;22.17;28.58
11343;BME280;5726;42.160;24.746;2023-01-19T12:46:52;98618.16;;;21.90;28.33
11343;BME280;5726;42.160;24.746;2023-01-19T12:49:32;98631.38;;;21.84;28.85
11343;BME280;5726;42.160;24.746;2023-01-19T13:00:37;98633.06;;;22.13;28.87
11343;BME280;5726;42.160;24.746;2023-01-19T13:03:40;98629.13;;;22.04;29.82
11343;BME280;5726;42.160;24.746;2023-01-19T13:05:52;98613.97;;;22.13;30.30
11343;BME280;5726;42.160;24.746;2023-01-19T13:08:20;98654.06;;;21.95;29.67
11343;BME280;5726;42.160;24.746;2023-01-19T13:15:57;98670.78;;;21.33;30.57
11343;BME280;5726;42.160;24.746;2023-01-19T13:18:32;98673.94;;;21.39;31.00
11343;BME280;5726;42.160;24.746;2023-01-19T13:21:04;98669.44;;;21.57;30.96
11343;BME280;5726;42.160;24.746;2023-01-19T13:26:13;98672.25;;;21.70;31.29
11343;BME280;5726;42.160;24.746;2023-01-19T13:28:43;98673.00;;;21.67;31.96
11343;BME280;5726;42.160;24.746;2023-01-19T13:31:09;98676.03;;;21.56;32.33
11343;BME280;5726;42.160;24.746;2023-01-19T13:33:51;98663.56;;;21.55;32.25
11343;BME280;5726;42.160;24.746;2023-01-19T13:36:36;98679.28;;;21.71;32.25
11343;BME280;5726;42.160;24.746;2023-01-19T13:39:11;98667.22;;;21.79;31.53
11343;BME280;5726;42.160;24.746;2023-01-19T13:41:39;98667.91;;;21.62;31.23
11343;BME280;5726;42.160;24.746;2023-01-19T13:44:25;98654.59;;;21.51;31.77
11343;BME280;5726;42.160;24.746;2023-01-19T13:46:53;98667.53;;;21.64;31.67
11343;BME280;5726;42.160;24.746;2023-01-19T13:49:30;98672.16;;;21.57;32.51
11343;BME280;5726;42.160;24.746;2023-01-19T13:54:55;98671.09;;;21.25;33.05
11343;BME280;5726;42.160;24.746;2023-01-19T14:02:37;98674.00;;;21.46;31.59
11343;BME280;5726;42.160;24.746;2023-01-19T14:05:32;98681.94;;;21.64;31.33
11343;BME280;5726;42.160;24.746;2023-01-19T14:10:39;98665.31;;;21.30;31.20
11343;BME280;5726;42.160;24.746;2023-01-19T14:13:19;98672.97;;;21.14;31.28
11343;BME280;5726;42.160;24.746;2023-01-19T14:15:46;98685.19;;;21.34;31.20